createdAt,value
2018-12-22T00:00:32.127Z,67.45
2018-12-22T00:03:04.833Z,67.12
2018-12-22T00:05:37.439Z,66.92
2018-12-22T00:08:10.044Z,66.53
2018-12-22T00:10:42.681Z,67.01
2018-12-22T00:13:16.963Z,66.49
2018-12-22T00:15:49.860Z,66.79
2018-12-22T00:18:22.902Z,66.23
2018-12-22T00:20:55.883Z,66.21
2018-12-22T00:23:28.874Z,66.44
2018-12-22T00:26:01.712Z,66.95
2018-12-22T00:28:34.440Z,63.99
2018-12-22T00:31:07.530Z,66.18
2018-12-22T00:33:40.624Z,66.27
2018-12-22T00:36:13.417Z,66.36
2018-12-22T00:38:46.430Z,66.52
2018-12-22T00:41:19.245Z,66.09
2018-12-22T00:43:52.054Z,66.56
2018-12-22T00:46:25.140Z,65.52
2018-12-22T00:48:58.129Z,65.96
2018-12-22T00:51:31.138Z,65.66
2018-12-22T00:54:04.244Z,65.46
2018-12-22T00:56:37.046Z,65.23
2018-12-22T00:59:10.678Z,64.95
2018-12-22T01:01:43.629Z,65.00
2018-12-22T01:04:16.646Z,64.53
2018-12-22T01:06:49.563Z,64.33
2018-12-22T01:09:22.417Z,64.64
2018-12-22T01:11:55.187Z,64.54
2018-12-22T01:14:28.267Z,65.01
2018-12-22T01:17:01.006Z,65.18
2018-12-22T01:19:33.929Z,65.37
2018-12-22T01:22:06.876Z,65.55
2018-12-22T01:24:39.743Z,65.62
2018-12-22T01:27:12.758Z,65.56
2018-12-22T01:29:45.800Z,65.70
2018-12-22T01:32:18.722Z,65.95
2018-12-22T01:34:51.503Z,65.27
2018-12-22T01:37:24.447Z,65.89
2018-12-22T01:39:57.477Z,65.76
2018-12-22T01:42:30.505Z,65.66
2018-12-22T01:45:03.385Z,66.13
2018-12-22T01:47:36.370Z,65.79
2018-12-22T01:50:09.511Z,65.76
2018-12-22T01:52:42.597Z,65.85
2018-12-22T01:55:15.662Z,65.78
2018-12-22T01:57:48.487Z,65.78
2018-12-22T02:00:21.290Z,65.86
2018-12-22T02:02:54.261Z,65.89
2018-12-22T02:05:28.292Z,65.39
2018-12-22T02:08:01.084Z,65.76
2018-12-22T02:10:34.179Z,65.80
2018-12-22T02:13:08.036Z,65.76
2018-12-22T02:15:41.140Z,66.29
2018-12-22T02:18:14.048Z,66.09
2018-12-22T02:20:46.901Z,65.81
2018-12-22T02:23:19.648Z,66.34
2018-12-22T02:25:53.079Z,65.21
2018-12-22T02:28:25.886Z,66.41
2018-12-22T02:30:58.967Z,66.20
2018-12-22T02:33:31.938Z,66.89
2018-12-22T02:36:04.741Z,67.24
2018-12-22T02:38:37.452Z,67.39
2018-12-22T02:41:10.231Z,67.27
2018-12-22T02:43:43.033Z,67.30
2018-12-22T02:46:15.995Z,67.36
2018-12-22T02:48:48.866Z,67.55
2018-12-22T02:51:21.956Z,67.30
2018-12-22T02:53:54.716Z,67.35
2018-12-22T02:56:27.369Z,67.39
2018-12-22T02:59:05.850Z,67.33
2018-12-22T03:01:35.109Z,67.78
2018-12-22T03:04:07.807Z,66.49
2018-12-22T03:06:40.793Z,67.49
2018-12-22T03:09:13.489Z,67.40
2018-12-22T03:11:46.373Z,67.20
2018-12-22T03:14:19.122Z,67.05
2018-12-22T03:16:52.150Z,67.17
2018-12-22T03:19:24.901Z,65.13
2018-12-22T03:21:58.019Z,67.08
2018-12-22T03:24:30.606Z,66.45
2018-12-22T03:27:03.575Z,66.97
2018-12-22T03:29:36.351Z,66.98
2018-12-22T03:32:09.223Z,67.27
2018-12-22T03:34:41.904Z,66.90
2018-12-22T03:37:14.835Z,67.02
2018-12-22T03:39:47.710Z,66.72
2018-12-22T03:42:20.703Z,66.68
2018-12-22T03:44:53.345Z,66.57
2018-12-22T03:47:26.144Z,66.58
2018-12-22T03:49:59.155Z,66.14
2018-12-22T03:52:32.425Z,66.08
2018-12-22T03:55:05.541Z,65.69
2018-12-22T03:57:38.481Z,65.83
2018-12-22T04:00:11.366Z,65.95
2018-12-22T04:02:44.030Z,65.79
2018-12-22T04:05:16.761Z,64.53
2018-12-22T04:07:49.909Z,65.49
2018-12-22T04:10:22.524Z,65.51
2018-12-22T04:12:55.270Z,65.58
2018-12-22T04:15:27.929Z,65.60
2018-12-22T04:18:00.636Z,65.78
2018-12-22T04:20:33.245Z,65.85
2018-12-22T04:23:06.035Z,65.89
2018-12-22T04:25:38.777Z,65.90
2018-12-22T04:28:11.498Z,65.81
2018-12-22T04:30:44.320Z,66.06
2018-12-22T04:33:17.142Z,66.29
2018-12-22T04:35:50.331Z,66.16
2018-12-22T04:38:23.382Z,65.96
2018-12-22T04:40:56.084Z,66.11
2018-12-22T04:43:29.204Z,65.97
2018-12-22T04:46:01.901Z,66.12
2018-12-22T04:48:34.733Z,65.97
2018-12-22T04:51:07.504Z,65.96
2018-12-22T04:53:40.290Z,66.48
2018-12-22T04:56:13.436Z,65.89
2018-12-22T04:58:46.964Z,66.23
2018-12-22T05:01:19.703Z,66.02
2018-12-22T05:03:52.568Z,65.89
2018-12-22T05:06:25.426Z,66.22
2018-12-22T05:08:59.602Z,66.26
2018-12-22T05:11:32.408Z,65.89
2018-12-22T05:14:05.266Z,65.99
2018-12-22T05:16:37.882Z,65.70
2018-12-22T05:19:10.579Z,65.78
2018-12-22T05:21:43.208Z,65.82
2018-12-22T05:24:16.970Z,65.82
2018-12-22T05:26:49.583Z,66.05
2018-12-22T05:29:22.468Z,66.16
2018-12-22T05:31:55.334Z,65.85
2018-12-22T05:34:28.243Z,65.61
2018-12-22T05:37:01.231Z,65.72
2018-12-22T05:39:34.245Z,65.88
2018-12-22T05:42:07.478Z,65.80
2018-12-22T05:44:40.320Z,66.04
2018-12-22T05:47:13.060Z,65.57
2018-12-22T05:49:46.091Z,66.22
2018-12-22T05:52:19.025Z,66.21
2018-12-22T05:54:51.832Z,65.95
2018-12-22T05:57:24.522Z,66.07
2018-12-22T06:00:00.788Z,66.18
2018-12-22T06:02:32.189Z,66.10
2018-12-22T06:05:07.906Z,66.42
2018-12-22T06:07:40.639Z,66.14
2018-12-22T06:10:13.675Z,66.06
2018-12-22T06:12:46.418Z,66.08
2018-12-22T06:15:19.256Z,65.97
2018-12-22T06:17:52.059Z,66.14
2018-12-22T06:20:24.930Z,66.22
2018-12-22T06:22:57.625Z,66.22
2018-12-22T06:25:30.733Z,66.08
2018-12-22T06:28:03.430Z,65.99
2018-12-22T06:30:36.415Z,66.01
2018-12-22T06:33:09.213Z,65.88
2018-12-22T06:35:41.992Z,66.20
2018-12-22T06:38:14.871Z,66.05
2018-12-22T06:40:47.781Z,66.13
2018-12-22T06:43:20.426Z,65.91
2018-12-22T06:45:53.251Z,65.95
2018-12-22T06:48:28.020Z,65.95
2018-12-22T06:51:00.606Z,65.69
2018-12-22T06:53:33.399Z,65.95
2018-12-22T06:56:06.094Z,65.84
2018-12-22T06:58:38.879Z,65.94
2018-12-22T07:01:11.625Z,65.71
2018-12-22T07:03:44.157Z,65.79
2018-12-22T07:06:16.917Z,65.95
2018-12-22T07:08:49.927Z,66.05
2018-12-22T07:11:22.752Z,65.95
2018-12-22T07:13:55.406Z,65.86
2018-12-22T07:16:28.284Z,65.68
2018-12-22T07:19:01.361Z,65.97
2018-12-22T07:21:34.713Z,66.02
2018-12-22T07:24:07.988Z,65.73
2018-12-22T07:26:40.871Z,65.71
2018-12-22T07:29:13.628Z,65.88
2018-12-22T07:31:46.442Z,66.01
2018-12-22T07:34:19.375Z,65.88
2018-12-22T07:36:52.290Z,65.92
2018-12-22T07:39:24.978Z,65.77
2018-12-22T07:41:57.927Z,65.74
2018-12-22T07:44:30.600Z,65.89
2018-12-22T07:47:03.502Z,65.69
2018-12-22T07:49:36.291Z,65.74
2018-12-22T07:52:09.311Z,65.58
2018-12-22T07:54:43.748Z,65.65
2018-12-22T07:57:16.776Z,65.83
2018-12-22T07:59:49.721Z,65.87
2018-12-22T08:02:22.630Z,65.90
2018-12-22T08:04:55.324Z,65.77
2018-12-22T08:07:28.189Z,65.68
2018-12-22T08:10:02.041Z,65.98
2018-12-22T08:12:34.915Z,65.96
2018-12-22T08:15:07.886Z,65.06
2018-12-22T08:17:41.450Z,65.78
2018-12-22T08:20:14.682Z,65.23
2018-12-22T08:22:47.637Z,65.53
2018-12-22T08:25:22.306Z,65.40
2018-12-22T08:27:56.410Z,65.50
2018-12-22T08:30:29.396Z,65.74
2018-12-22T08:33:02.882Z,65.63
2018-12-22T08:35:35.592Z,65.56
2018-12-22T08:38:08.540Z,65.52
2018-12-22T08:40:41.675Z,65.38
2018-12-22T08:43:14.734Z,65.52
2018-12-22T08:45:47.801Z,65.73
2018-12-22T08:48:20.566Z,65.46
2018-12-22T08:50:54.632Z,65.19
2018-12-22T08:53:27.457Z,65.35
2018-12-22T08:56:00.314Z,65.54
2018-12-22T08:58:34.003Z,65.52
2018-12-22T09:01:07.613Z,65.75
2018-12-22T09:03:40.816Z,65.40
2018-12-22T09:06:13.972Z,65.35
2018-12-22T09:08:47.281Z,65.49
2018-12-22T09:11:19.862Z,65.38
2018-12-22T09:13:53.271Z,65.48
2018-12-22T09:16:26.314Z,65.38
2018-12-22T09:18:59.446Z,65.10
2018-12-22T09:21:32.187Z,65.01
2018-12-22T09:24:06.304Z,65.10
2018-12-22T09:26:39.129Z,65.05
2018-12-22T09:29:12.938Z,65.22
2018-12-22T09:31:47.196Z,65.19
2018-12-22T09:34:20.329Z,64.99
2018-12-22T09:36:54.796Z,65.05
2018-12-22T09:39:28.033Z,65.29
2018-12-22T09:42:01.425Z,65.23
2018-12-22T09:44:34.271Z,65.13
2018-12-22T09:47:08.832Z,65.51
2018-12-22T09:49:42.049Z,65.38
2018-12-22T09:52:15.178Z,65.12
2018-12-22T09:54:48.516Z,65.14
2018-12-22T09:57:21.790Z,64.99
2018-12-22T09:59:55.037Z,65.33
2018-12-22T10:02:28.733Z,64.82
2018-12-22T10:05:04.584Z,65.12
2018-12-22T10:07:37.990Z,64.80
2018-12-22T10:10:12.819Z,64.70
2018-12-22T10:12:46.053Z,64.75
2018-12-22T10:15:21.063Z,64.90
2018-12-22T10:17:54.308Z,64.84
2018-12-22T10:20:27.066Z,64.90
2018-12-22T10:23:00.507Z,64.99
2018-12-22T10:25:33.538Z,64.96
2018-12-22T10:28:06.297Z,64.71
2018-12-22T10:30:39.081Z,64.64
2018-12-22T10:33:11.896Z,64.72
2018-12-22T10:35:44.524Z,64.91
2018-12-22T10:38:17.287Z,64.69
2018-12-22T10:40:49.898Z,65.07
2018-12-22T10:43:22.797Z,64.73
2018-12-22T10:45:55.606Z,65.30
2018-12-22T10:48:28.388Z,65.14
2018-12-22T10:51:01.265Z,64.91
2018-12-22T10:53:33.949Z,64.71
2018-12-22T10:56:07.078Z,64.99
2018-12-22T10:58:40.049Z,64.84
2018-12-22T11:01:12.801Z,65.22
2018-12-22T11:03:45.757Z,65.02
2018-12-22T11:06:18.495Z,65.32
2018-12-22T11:08:51.406Z,65.15
2018-12-22T11:11:24.090Z,65.07
2018-12-22T11:13:56.849Z,65.31
2018-12-22T11:16:29.709Z,65.33
2018-12-22T11:19:02.719Z,65.29
2018-12-22T11:21:35.437Z,65.21
2018-12-22T11:24:08.093Z,65.03
2018-12-22T11:26:40.835Z,64.93
2018-12-22T11:29:14.212Z,65.18
2018-12-22T11:31:46.979Z,64.58
2018-12-22T11:34:20.013Z,64.78
2018-12-22T11:36:52.820Z,64.91
2018-12-22T11:39:25.485Z,65.06
2018-12-22T11:41:58.555Z,64.98
2018-12-22T11:44:31.849Z,64.80
2018-12-22T11:47:08.084Z,65.00
2018-12-22T11:49:42.933Z,64.94
2018-12-22T11:52:15.737Z,65.05
2018-12-22T11:54:48.885Z,64.47
2018-12-22T11:57:21.663Z,64.70
2018-12-22T11:59:54.905Z,64.63
2018-12-22T12:02:28.157Z,64.41
2018-12-22T12:05:01.004Z,64.52
2018-12-22T12:07:33.785Z,64.61
2018-12-22T12:10:08.948Z,64.43
2018-12-22T12:12:41.878Z,64.61
2018-12-22T12:15:17.737Z,64.60
2018-12-22T12:17:57.322Z,64.29
2018-12-22T12:20:30.319Z,64.52
2018-12-22T12:23:03.199Z,64.75
2018-12-22T12:25:36.146Z,64.58
2018-12-22T12:28:09.280Z,64.50
2018-12-22T12:30:42.947Z,64.63
2018-12-22T12:33:15.641Z,64.66
2018-12-22T12:35:48.384Z,64.57
2018-12-22T12:38:21.468Z,64.61
2018-12-22T12:40:54.478Z,65.00
2018-12-22T12:43:27.139Z,65.21
2018-12-22T12:46:00.061Z,65.16
2018-12-22T12:48:33.041Z,65.20
2018-12-22T12:51:06.170Z,64.98
2018-12-22T12:53:39.000Z,65.15
2018-12-22T12:56:12.362Z,63.97
2018-12-22T12:58:45.184Z,64.36
2018-12-22T13:01:17.950Z,63.88
2018-12-22T13:03:50.846Z,64.30
2018-12-22T13:06:23.727Z,64.01
2018-12-22T13:08:56.605Z,64.27
2018-12-22T13:11:29.490Z,63.78
2018-12-22T13:14:02.346Z,63.74
2018-12-22T13:16:35.287Z,63.95
2018-12-22T13:19:08.302Z,63.96
2018-12-22T13:21:41.074Z,64.19
2018-12-22T13:24:15.033Z,64.00
2018-12-22T13:26:47.882Z,64.02
2018-12-22T13:29:21.601Z,63.90
2018-12-22T13:31:54.881Z,64.04
2018-12-22T13:34:27.583Z,64.15
2018-12-22T13:37:00.353Z,64.20
2018-12-22T13:39:33.007Z,63.98
2018-12-22T13:42:05.870Z,64.24
2018-12-22T13:44:38.657Z,64.05
2018-12-22T13:47:11.429Z,64.20
2018-12-22T13:49:44.559Z,63.96
2018-12-22T13:52:17.655Z,64.19
2018-12-22T13:54:50.357Z,63.77
2018-12-22T13:57:23.476Z,64.18
2018-12-22T13:59:56.364Z,64.40
2018-12-22T14:02:32.400Z,64.51
2018-12-22T14:05:09.360Z,64.22
2018-12-22T14:07:42.280Z,64.59
2018-12-22T14:10:15.098Z,64.75
2018-12-22T14:12:48.076Z,64.64
2018-12-22T14:15:24.823Z,64.95
2018-12-22T14:21:01.588Z,65.00
2018-12-22T14:23:51.308Z,65.27
2018-12-22T14:26:24.087Z,65.35
2018-12-22T14:28:56.927Z,65.71
2018-12-22T14:31:29.836Z,65.82
2018-12-22T14:34:08.161Z,66.13
2018-12-22T14:36:41.059Z,66.19
2018-12-22T14:39:14.115Z,66.39
2018-12-22T14:41:46.913Z,66.22
2018-12-22T14:44:19.734Z,66.55
2018-12-22T14:46:52.676Z,66.34
2018-12-22T14:49:25.520Z,66.50
2018-12-22T14:51:58.341Z,66.72
2018-12-22T14:54:31.152Z,66.71
2018-12-22T14:57:03.924Z,66.93
2018-12-22T14:59:36.562Z,66.68
2018-12-22T15:02:09.268Z,66.76
2018-12-22T15:04:42.149Z,67.07
2018-12-22T15:07:14.886Z,67.04
2018-12-22T15:09:47.600Z,66.89
2018-12-22T15:12:20.309Z,66.97
2018-12-22T15:14:53.081Z,66.92
2018-12-22T15:17:25.911Z,67.20
2018-12-22T15:19:58.891Z,66.84
2018-12-22T15:22:31.626Z,67.07
2018-12-22T15:25:06.857Z,67.19
2018-12-22T15:27:39.736Z,67.26
2018-12-22T15:30:14.501Z,67.09
2018-12-22T15:32:54.385Z,67.23
2018-12-22T15:35:22.209Z,67.00
2018-12-22T15:37:55.063Z,67.32
2018-12-22T15:40:28.036Z,67.16
2018-12-22T15:43:00.818Z,67.32
2018-12-22T15:45:33.840Z,67.24
2018-12-22T15:48:07.381Z,67.35
2018-12-22T15:50:42.201Z,67.24
2018-12-22T15:53:14.990Z,67.46
2018-12-22T15:55:48.095Z,67.28
2018-12-22T15:58:20.788Z,67.32
2018-12-22T16:00:53.606Z,67.51
2018-12-22T16:03:26.413Z,67.41
2018-12-22T16:05:59.331Z,67.41
2018-12-22T16:08:31.982Z,67.54
2018-12-22T16:11:04.897Z,67.63
2018-12-22T16:13:37.596Z,67.66
2018-12-22T16:16:10.245Z,67.44
2018-12-22T16:18:43.177Z,67.71
2018-12-22T16:21:16.014Z,67.53
2018-12-22T16:23:48.738Z,67.62
2018-12-22T16:26:21.691Z,67.37
2018-12-22T16:28:55.474Z,67.62
2018-12-22T16:31:28.505Z,67.33
2018-12-22T16:34:01.338Z,67.26
2018-12-22T16:36:34.360Z,67.62
2018-12-22T16:39:07.269Z,67.55
2018-12-22T16:41:40.316Z,67.79
2018-12-22T16:44:13.425Z,67.80
2018-12-22T16:46:46.752Z,68.04
2018-12-22T16:49:20.127Z,67.96
2018-12-22T16:51:53.798Z,68.01
2018-12-22T16:54:26.708Z,67.84
2018-12-22T16:56:59.896Z,67.87
2018-12-22T16:59:33.409Z,68.28
2018-12-22T17:02:06.806Z,67.91
2018-12-22T17:04:39.540Z,68.09
2018-12-22T17:07:12.349Z,68.07
2018-12-22T17:09:45.090Z,68.20
2018-12-22T17:12:18.102Z,67.97
2018-12-22T17:14:51.246Z,68.22
2018-12-22T17:17:23.983Z,68.42
2018-12-22T17:19:57.035Z,68.19
2018-12-22T17:22:30.442Z,68.45
2018-12-22T17:25:03.742Z,68.41
2018-12-22T17:27:36.691Z,68.28
2018-12-22T17:30:09.438Z,68.40
2018-12-22T17:32:42.695Z,68.53
2018-12-22T17:35:15.384Z,68.74
2018-12-22T17:37:48.537Z,68.67
2018-12-22T17:40:21.403Z,68.85
2018-12-22T17:42:54.356Z,68.75
2018-12-22T17:45:27.201Z,68.69
2018-12-22T17:48:00.207Z,69.07
2018-12-22T17:50:32.953Z,69.08
2018-12-22T17:53:05.941Z,69.36
2018-12-22T17:55:38.795Z,69.45
2018-12-22T17:58:11.619Z,69.51
2018-12-22T18:00:44.362Z,68.98
2018-12-22T18:03:17.287Z,69.18
2018-12-22T18:05:50.229Z,69.51
2018-12-22T18:08:23.135Z,69.17
2018-12-22T18:10:55.787Z,69.28
2018-12-22T18:13:28.809Z,69.38
2018-12-22T18:16:01.561Z,69.23
2018-12-22T18:18:34.387Z,69.23
2018-12-22T18:21:07.076Z,69.63
2018-12-22T18:23:39.956Z,69.54
2018-12-22T18:26:12.604Z,69.60
2018-12-22T18:28:45.616Z,69.39
2018-12-22T18:31:18.349Z,69.36
2018-12-22T18:33:51.524Z,69.00
2018-12-22T18:36:24.181Z,69.38
2018-12-22T18:38:57.109Z,69.27
2018-12-22T18:41:29.957Z,68.86
2018-12-22T18:44:02.818Z,68.58
2018-12-22T18:46:35.834Z,68.81
2018-12-22T18:49:08.784Z,68.90
2018-12-22T18:51:41.564Z,68.90
2018-12-22T18:54:14.630Z,69.01
2018-12-22T18:56:47.603Z,69.02
2018-12-22T18:59:21.005Z,68.96
2018-12-22T19:01:54.049Z,68.66
2018-12-22T19:04:26.819Z,68.93
2018-12-22T19:06:59.458Z,69.11
2018-12-22T19:09:32.294Z,69.25
2018-12-22T19:12:07.004Z,69.25
2018-12-22T19:14:40.042Z,69.05
2018-12-22T19:17:12.845Z,69.23
2018-12-22T19:19:45.635Z,69.12
2018-12-22T19:22:18.607Z,69.26
2018-12-22T19:24:51.601Z,69.19
2018-12-22T19:27:24.383Z,69.06
2018-12-22T19:29:58.731Z,69.37
2018-12-22T19:32:31.494Z,69.06
2018-12-22T19:35:06.242Z,69.24
2018-12-22T19:37:39.101Z,69.30
2018-12-22T19:40:11.906Z,69.18
2018-12-22T19:42:44.619Z,69.20
2018-12-22T19:45:17.988Z,69.29
2018-12-22T19:47:51.488Z,69.21
2018-12-22T19:50:24.396Z,69.06
2018-12-22T19:52:58.180Z,69.24
2018-12-22T19:55:30.917Z,69.32
2018-12-22T19:58:03.738Z,69.38
2018-12-22T20:00:36.674Z,69.27
2018-12-22T20:03:09.557Z,69.17
2018-12-22T20:05:42.561Z,69.31
2018-12-22T20:08:15.407Z,69.27
2018-12-22T20:10:48.459Z,69.24
2018-12-22T20:13:21.322Z,69.16
2018-12-22T20:15:54.206Z,69.06
2018-12-22T20:18:27.113Z,69.24
2018-12-22T20:20:59.693Z,69.27
2018-12-22T20:23:32.336Z,69.20
2018-12-22T20:26:05.092Z,69.15
2018-12-22T20:28:37.798Z,68.94
2018-12-22T20:31:10.484Z,69.13
2018-12-22T20:33:43.561Z,69.18
2018-12-22T20:36:16.338Z,69.21
2018-12-22T20:38:49.059Z,69.25
2018-12-22T20:41:22.198Z,69.05
2018-12-22T20:43:55.272Z,69.25
2018-12-22T20:46:28.061Z,69.37
2018-12-22T20:49:00.842Z,69.49
2018-12-22T20:51:33.852Z,69.33
2018-12-22T20:54:06.611Z,69.10
2018-12-22T20:56:39.364Z,69.03
2018-12-22T20:59:12.685Z,69.33
2018-12-22T21:01:46.229Z,69.00
2018-12-22T21:04:20.009Z,69.28
2018-12-22T21:06:53.291Z,69.06
2018-12-22T21:09:26.277Z,68.57
2018-12-22T21:11:59.017Z,68.91
2018-12-22T21:14:31.743Z,69.06
2018-12-22T21:17:04.823Z,68.57
2018-12-22T21:19:37.485Z,68.79
2018-12-22T21:22:10.690Z,69.06
2018-12-22T21:24:44.159Z,68.78
2018-12-22T21:27:16.972Z,69.04
2018-12-22T21:29:49.611Z,69.17
2018-12-22T21:32:22.340Z,69.11
2018-12-22T21:34:55.025Z,68.99
2018-12-22T21:37:27.661Z,69.26
2018-12-22T21:40:00.311Z,69.13
2018-12-22T21:42:32.997Z,69.40
2018-12-22T21:45:05.798Z,69.33
2018-12-22T21:47:38.655Z,69.15
2018-12-22T21:50:11.434Z,69.25
2018-12-22T21:52:44.495Z,69.17
2018-12-22T21:55:17.332Z,69.23
2018-12-22T21:57:50.305Z,69.17
2018-12-22T22:00:23.844Z,69.25
2018-12-22T22:02:58.791Z,69.18
2018-12-22T22:05:31.734Z,69.04
2018-12-22T22:08:04.835Z,69.29
2018-12-22T22:10:37.959Z,69.42
2018-12-22T22:13:11.259Z,69.34
2018-12-22T22:15:44.421Z,69.03
2018-12-22T22:18:17.506Z,69.24
2018-12-22T22:20:50.745Z,69.30
2018-12-22T22:23:24.067Z,69.29
2018-12-22T22:25:57.033Z,69.26
2018-12-22T22:28:31.078Z,69.24
2018-12-22T22:31:04.235Z,69.48
2018-12-22T22:33:38.008Z,69.16
2018-12-22T22:36:11.376Z,69.35
2018-12-22T22:38:44.408Z,69.10
2018-12-22T22:41:18.743Z,69.26
2018-12-22T22:43:52.915Z,69.27
2018-12-22T22:46:26.120Z,69.29
2018-12-22T22:48:59.321Z,69.33
2018-12-22T22:51:32.315Z,69.46
2018-12-22T22:54:05.488Z,69.30
2018-12-22T22:56:38.488Z,69.35
2018-12-22T22:59:11.583Z,69.73
2018-12-22T23:01:44.904Z,69.57
2018-12-22T23:04:18.100Z,69.37
2018-12-22T23:06:51.310Z,69.25
2018-12-22T23:09:26.235Z,69.38
2018-12-22T23:11:59.281Z,69.47
2018-12-22T23:14:32.681Z,69.22
2018-12-22T23:17:05.706Z,69.28
2018-12-22T23:19:39.678Z,69.34
2018-12-22T23:22:13.326Z,69.20
2018-12-22T23:24:47.919Z,68.97
2018-12-22T23:27:20.854Z,69.18
2018-12-22T23:29:54.237Z,69.39
2018-12-22T23:32:27.252Z,69.41
2018-12-22T23:35:03.210Z,69.17
2018-12-22T23:37:36.039Z,69.46
2018-12-22T23:40:09.239Z,69.09
2018-12-22T23:42:42.305Z,69.30
2018-12-22T23:45:15.396Z,69.41
2018-12-22T23:47:48.435Z,69.28
2018-12-22T23:50:21.785Z,69.21
2018-12-22T23:52:55.038Z,69.36
2018-12-22T23:55:28.177Z,69.46
2018-12-22T23:58:02.075Z,69.57
